Fribourg, Switzerland

11:50 PM CEST am 28. April 2017 (GMT +0200)
Avenue de la Gare | | Change Station

Höhe 2050 ft 46.80 °N, 7.15 °E | Updated 5 minutes ago

Heiter
Heiter
45.0 °F
gefühlte 45 °F
N
0.6
Wind Wechselnd Wind aus Ost-Südost
Gusts 2.5 mph

Heute
Max. -- | schwach -- °F
--% Regenrisiko
Gestern
Max. -- | schwach -- °F
Precip. -- inch
Druck 30.09 inch
Sichtweite 6.2 Meilen
Wolken Few 8500 ft
Windchill 45 °F
Taupunkt 34 °F
Feuchtigkeit 64%
Regen Nicht verfügbar..
Schneehöhe Nicht verfügbar..
6:21 AM 8:37 PM
Erstes Viertel, 9% visible
METAR LSMP 282050Z AUTO 18004KT 9999NDV FEW085 04/01 Q1019 RMK
Druck 30.09 inch
Sichtweite 6.2 Meilen
Wolken Few 8500 ft
Windchill 45 °F
Taupunkt 34 °F
Feuchtigkeit 64%
Regen Nicht verfügbar..
Schneehöhe Nicht verfügbar..
6:21 AM 8:37 PM
Erstes Viertel, 9% visible
METAR LSMP 282050Z AUTO 18004KT 9999NDV FEW085 04/01 Q1019 RMK

Get Severe Weather Alerts

Thanks for signing up!

Be on the lookout for a verification email in your inbox.

You'll start receiving the daily forecast at 8 AM.

×

10-Day Weather Forecast

×

Almanac

Astronomie

Apr. 28, 2017 Aufgang Untergang
Genaue Zeit
Bürgerliche Dämmerung
Nautische Dämmerung
Astronomische Dämmerung
Mond
Länge des sichtbaren Lichts
Tageslänge
Tomorrow will be .
, % of the Moon is Illuminated

Heutige Rekorde

Country Highs Country Lows

Community

WunderPhotos

WunderBlog® & News

Nearby

Luftqualität

  Luftqualität LQ Index Schadstoff
Not available.

Schneehöhe

Station Depth Höhe

Erdbebenaktivität

Stadt Distance Mag. Time & Date
Minimum magnitude displayed is 2.5.

küstennahe Wassertemperaturen

Ort Temperatur

Stations

Wetterstationen in der Umgebung

Stationsstandort Temp. Windchill Taupunkt Feuchtigkeit Wind Precip. Höhe Aktualisiert Art